Time;durP1;ratioP1;P1;durP2;ratioP2;P2;SDS_P1;SDS_P2;PMS_P1;PMS_P2;Temp;Humidity;BMP_temperature;BMP_pressure;BME280_temperature;BME280_humidity;BME280_pressure;Samples;Min_cycle;Max_cycle;Signal;HPM_P1;HPM_P2
2023/10/04 00:00:29;;;;;;;9.63;4.45;;;;;;;;;;1041097;28;20135;-69
2023/10/04 00:01:21;;;;;;;11.32;6.00;;;;;;;;;;1041308;28;20131;-69
2023/10/04 00:01:52;;;;;;;10.57;5.35;;;;;;;;;;1040132;28;20056;-69
2023/10/04 00:02:23;;;;;;;9.38;5.05;;;;;;;;;;1040184;28;20126;-69
2023/10/04 00:02:54;;;;;;;12.23;5.65;;;;;;;;;;1040767;28;20055;-69
2023/10/04 00:03:26;;;;;;;8.45;5.35;;;;;;;;;;1045630;28;20052;-69
2023/10/04 00:03:57;;;;;;;9.55;5.32;;;;;;;;;;1043986;28;20036;-69
2023/10/04 00:04:27;;;;;;;8.75;4.85;;;;;;;;;;1045240;28;20049;-69
2023/10/04 00:04:58;;;;;;;11.60;5.40;;;;;;;;;;1044942;28;20048;-69
2023/10/04 00:05:30;;;;;;;10.48;4.82;;;;;;;;;;1045859;28;20048;-69
2023/10/04 00:06:00;;;;;;;9.85;5.18;;;;;;;;;;1045449;28;20447;-69
2023/10/04 00:06:32;;;;;;;8.55;4.65;;;;;;;;;;1046555;28;20447;-69
2023/10/04 00:07:05;;;;;;;8.23;5.40;;;;;;;;;;1045926;28;20045;-69
2023/10/04 00:07:35;;;;;;;10.27;4.40;;;;;;;;;;1044616;28;20101;-69
2023/10/04 00:08:06;;;;;;;11.65;6.13;;;;;;;;;;1045387;28;20111;-69
2023/10/04 00:08:36;;;;;;;10.52;5.60;;;;;;;;;;1044707;28;20440;-69
2023/10/04 00:09:09;;;;;;;9.20;5.03;;;;;;;;;;1044374;28;20052;-69
2023/10/04 00:09:41;;;;;;;10.75;6.07;;;;;;;;;;1046117;28;20405;-69
2023/10/04 00:10:13;;;;;;;8.13;4.60;;;;;;;;;;1044767;28;20086;-69
2023/10/04 00:10:44;;;;;;;9.43;5.03;;;;;;;;;;1045477;28;20044;-69
2023/10/04 00:11:15;;;;;;;11.77;5.18;;;;;;;;;;1045552;28;20052;-69
2023/10/04 00:11:45;;;;;;;12.85;5.90;;;;;;;;;;1044671;28;20072;-69
2023/10/04 00:12:16;;;;;;;9.65;5.28;;;;;;;;;;1044137;28;20061;-69
2023/10/04 00:12:46;;;;;;;10.68;5.40;;;;;;;;;;1044165;28;20711;-69
2023/10/04 00:13:17;;;;;;;10.50;5.03;;;;;;;;;;1045004;28;20044;-69
2023/10/04 00:13:47;;;;;;;12.30;5.07;;;;;;;;;;1043828;28;20052;-69
2023/10/04 00:14:18;;;;;;;9.02;5.20;;;;;;;;;;1044496;28;20051;-69
2023/10/04 00:14:49;;;;;;;10.00;5.97;;;;;;;;;;1045589;28;20044;-69
2023/10/04 00:15:20;;;;;;;10.18;5.30;;;;;;;;;;1045029;28;20045;-69
2023/10/04 00:15:50;;;;;;;10.90;5.60;;;;;;;;;;1044233;28;20036;-69
2023/10/04 00:16:22;;;;;;;9.05;4.80;;;;;;;;;;1045242;28;20082;-69
2023/10/04 00:16:54;;;;;;;9.15;4.97;;;;;;;;;;1045152;28;20048;-69
2023/10/04 00:17:24;;;;;;;8.57;5.18;;;;;;;;;;1045845;28;20059;-69
2023/10/04 00:17:55;;;;;;;9.80;5.13;;;;;;;;;;1045632;28;20055;-69
2023/10/04 00:18:25;;;;;;;12.82;4.97;;;;;;;;;;1044574;28;20044;-69
2023/10/04 00:18:56;;;;;;;10.68;5.30;;;;;;;;;;1044753;28;20044;-69
2023/10/04 00:19:28;;;;;;;10.48;5.00;;;;;;;;;;1044403;28;20045;-69
2023/10/04 00:19:58;;;;;;;11.25;5.32;;;;;;;;;;1044926;28;20045;-69
2023/10/04 00:20:32;;;;;;;9.52;5.25;;;;;;;;;;1045522;28;20055;-69
2023/10/04 00:21:06;;;;;;;10.05;4.75;;;;;;;;;;1044918;28;20103;-69
2023/10/04 00:21:37;;;;;;;11.50;5.30;;;;;;;;;;1044865;28;20499;-69
2023/10/04 00:22:07;;;;;;;11.10;5.25;;;;;;;;;;1045151;28;20552;-69
2023/10/04 00:22:39;;;;;;;9.82;5.43;;;;;;;;;;1046293;28;20049;-69
2023/10/04 00:23:10;;;;;;;10.20;5.68;;;;;;;;;;1044278;28;20754;-69
2023/10/04 00:23:41;;;;;;;10.73;5.55;;;;;;;;;;1044065;28;20500;-69
2023/10/04 00:24:13;;;;;;;9.13;5.03;;;;;;;;;;1044469;28;23738;-69
2023/10/04 00:24:44;;;;;;;11.80;5.00;;;;;;;;;;1045633;28;20131;-69
2023/10/04 00:25:21;;;;;;;12.30;5.18;;;;;;;;;;1045615;28;20052;-70
2023/10/04 00:25:52;;;;;;;10.85;4.95;;;;;;;;;;1044731;28;20055;-69
2023/10/04 00:26:22;;;;;;;8.38;4.82;;;;;;;;;;1046253;28;20059;-69
2023/10/04 00:26:53;;;;;;;10.68;4.35;;;;;;;;;;1045654;28;20040;-69
2023/10/04 00:27:24;;;;;;;10.43;4.55;;;;;;;;;;1044025;28;20048;-69
2023/10/04 00:27:58;;;;;;;11.18;5.75;;;;;;;;;;1046360;28;20036;-69
2023/10/04 00:28:29;;;;;;;8.80;4.72;;;;;;;;;;1045670;28;20056;-69
2023/10/04 00:28:59;;;;;;;8.82;4.65;;;;;;;;;;1044776;28;20052;-69
2023/10/04 00:29:30;;;;;;;9.48;4.40;;;;;;;;;;1046292;28;20049;-69
2023/10/04 00:30:01;;;;;;;10.55;5.03;;;;;;;;;;1045819;28;20131;-69
2023/10/04 00:30:32;;;;;;;12.05;5.45;;;;;;;;;;1044287;28;20037;-69
2023/10/04 00:31:03;;;;;;;9.05;4.78;;;;;;;;;;1045946;28;20059;-69
2023/10/04 00:31:36;;;;;;;7.03;3.83;;;;;;;;;;1044956;28;20174;-69
2023/10/04 00:32:06;;;;;;;10.05;4.50;;;;;;;;;;1044033;28;20562;-69
2023/10/04 00:32:37;;;;;;;7.32;4.28;;;;;;;;;;1043086;28;21210;-69
2023/10/04 00:33:08;;;;;;;9.75;5.13;;;;;;;;;;1046098;28;20045;-69
2023/10/04 00:33:39;;;;;;;10.82;4.68;;;;;;;;;;1044006;28;20048;-70
2023/10/04 00:34:09;;;;;;;10.70;5.40;;;;;;;;;;1045652;28;20071;-69
2023/10/04 00:34:40;;;;;;;9.35;4.30;;;;;;;;;;1043513;28;20057;-69
2023/10/04 00:35:15;;;;;;;10.93;4.20;;;;;;;;;;1044787;28;20048;-69
2023/10/04 00:35:46;;;;;;;9.10;4.65;;;;;;;;;;1045472;28;20032;-69
2023/10/04 00:36:20;;;;;;;8.10;4.43;;;;;;;;;;1045890;28;20057;-69
2023/10/04 00:36:52;;;;;;;10.55;4.85;;;;;;;;;;1043765;28;20055;-69
2023/10/04 00:37:24;;;;;;;8.07;4.20;;;;;;;;;;1046347;28;20151;-69
2023/10/04 00:38:00;;;;;;;7.25;4.28;;;;;;;;;;1044954;28;20117;-69
2023/10/04 00:38:33;;;;;;;11.10;4.18;;;;;;;;;;1045515;28;20052;-69
2023/10/04 00:39:06;;;;;;;7.57;4.00;;;;;;;;;;1045621;28;20583;-69
2023/10/04 00:39:38;;;;;;;9.88;4.50;;;;;;;;;;1045418;28;20048;-69
2023/10/04 00:40:18;;;;;;;7.60;4.40;;;;;;;;;;1042741;28;20063;-69
2023/10/04 00:40:50;;;;;;;;;;;;;;;;;;1042295;28;20071;-69
2023/10/04 00:41:21;;;;;;;7.78;4.10;;;;;;;;;;1042038;28;19925;-69
2023/10/04 00:41:53;;;;;;;12.27;4.47;;;;;;;;;;1041515;28;20667;-69
2023/10/04 00:42:24;;;;;;;7.95;4.10;;;;;;;;;;1039265;28;20044;-69
2023/10/04 00:43:12;;;;;;;7.40;4.20;;;;;;;;;;1041632;28;20528;-69
2023/10/04 00:43:50;;;;;;;7.82;4.13;;;;;;;;;;1043262;28;20064;-69
2023/10/04 00:44:21;;;;;;;7.18;3.95;;;;;;;;;;1042047;28;20130;-69
2023/10/04 00:44:51;;;;;;;8.40;4.05;;;;;;;;;;1041105;28;23755;-69
2023/10/04 00:45:23;;;;;;;11.80;4.55;;;;;;;;;;1043156;28;20485;-69
2023/10/04 00:45:54;;;;;;;6.93;3.63;;;;;;;;;;1044353;28;20101;-69
2023/10/04 00:46:24;;;;;;;7.78;4.07;;;;;;;;;;1045284;28;20110;-69
2023/10/04 00:46:56;;;;;;;11.77;4.40;;;;;;;;;;1046540;28;20056;-70
2023/10/04 00:47:26;;;;;;;8.43;4.40;;;;;;;;;;1043515;28;20898;-69
2023/10/04 00:47:59;;;;;;;8.05;3.58;;;;;;;;;;1045459;28;20480;-69
2023/10/04 00:48:34;;;;;;;9.68;4.03;;;;;;;;;;1044663;28;20067;-69
2023/10/04 00:49:06;;;;;;;7.60;3.60;;;;;;;;;;1045314;28;20119;-69
2023/10/04 00:49:37;;;;;;;7.22;3.67;;;;;;;;;;1044654;28;20744;-69
2023/10/04 00:50:16;;;;;;;9.13;4.25;;;;;;;;;;1044929;28;20445;-69
2023/10/04 00:50:47;;;;;;;12.07;4.15;;;;;;;;;;1044634;28;20052;-69
2023/10/04 00:51:22;;;;;;;8.55;3.95;;;;;;;;;;1045318;28;20040;-70
2023/10/04 00:51:53;;;;;;;6.63;4.00;;;;;;;;;;1045761;28;20052;-69
2023/10/04 00:52:23;;;;;;;6.28;3.83;;;;;;;;;;1044868;28;20044;-69
2023/10/04 00:53:06;;;;;;;9.82;4.13;;;;;;;;;;1045339;28;20105;-69
2023/10/04 00:53:37;;;;;;;6.55;3.17;;;;;;;;;;1042320;28;20160;-69
2023/10/04 00:54:10;;;;;;;6.20;3.63;;;;;;;;;;1040734;28;20076;-69
2023/10/04 00:54:41;;;;;;;7.63;3.85;;;;;;;;;;1041109;28;20056;-69
2023/10/04 00:55:11;;;;;;;5.72;3.60;;;;;;;;;;1041538;28;20076;-69
2023/10/04 00:55:44;;;;;;;8.15;3.92;;;;;;;;;;1041830;28;20051;-69
2023/10/04 00:56:16;;;;;;;7.20;3.97;;;;;;;;;;1041842;28;20053;-70
2023/10/04 00:56:47;;;;;;;14.20;3.92;;;;;;;;;;1044465;28;20123;-70
2023/10/04 00:57:18;;;;;;;7.18;4.10;;;;;;;;;;1045351;28;20044;-69
2023/10/04 00:57:51;;;;;;;6.45;3.53;;;;;;;;;;1046062;28;20063;-69
2023/10/04 00:58:22;;;;;;;8.25;3.75;;;;;;;;;;1045378;28;20048;-69
2023/10/04 00:58:53;;;;;;;7.88;3.85;;;;;;;;;;1046733;28;20045;-69
2023/10/04 00:59:23;;;;;;;6.10;4.07;;;;;;;;;;1044502;28;20052;-69
2023/10/04 00:59:54;;;;;;;6.72;3.80;;;;;;;;;;1044210;28;20098;-69
2023/10/04 01:00:26;;;;;;;9.02;4.00;;;;;;;;;;1044239;28;20053;-69
2023/10/04 01:00:56;;;;;;;6.32;3.88;;;;;;;;;;1045909;28;20412;-69
2023/10/04 01:01:27;;;;;;;8.13;3.75;;;;;;;;;;1044752;28;20597;-69
2023/10/04 01:01:57;;;;;;;7.50;4.43;;;;;;;;;;1044874;28;20056;-69
2023/10/04 01:02:28;;;;;;;6.70;3.97;;;;;;;;;;1044552;28;20119;-69
2023/10/04 01:02:59;;;;;;;5.70;3.75;;;;;;;;;;1045263;28;20048;-69
2023/10/04 01:03:34;;;;;;;7.22;3.42;;;;;;;;;;1044931;28;20056;-69
2023/10/04 01:04:05;;;;;;;9.43;3.47;;;;;;;;;;1045345;28;20082;-68
2023/10/04 01:04:36;;;;;;;4.88;3.45;;;;;;;;;;1044818;28;20086;-70
2023/10/04 01:05:07;;;;;;;5.97;3.17;;;;;;;;;;1044340;28;20086;-69
2023/10/04 01:05:40;;;;;;;7.13;3.75;;;;;;;;;;1044228;28;20044;-69
2023/10/04 01:06:13;;;;;;;7.05;3.15;;;;;;;;;;1044819;28;20087;-69
2023/10/04 01:06:44;;;;;;;5.28;3.00;;;;;;;;;;1046367;28;20450;-69
2023/10/04 01:07:16;;;;;;;8.27;3.55;;;;;;;;;;1046794;28;20099;-69
2023/10/04 01:07:48;;;;;;;6.10;3.38;;;;;;;;;;1046352;28;20067;-69
2023/10/04 01:08:23;;;;;;;7.13;3.53;;;;;;;;;;1045653;28;20056;-69
2023/10/04 01:08:55;;;;;;;5.40;2.75;;;;;;;;;;1046104;28;20063;-69
2023/10/04 01:09:26;;;;;;;4.88;3.15;;;;;;;;;;1047317;28;20497;-69
2023/10/04 01:09:58;;;;;;;4.05;2.60;;;;;;;;;;1046143;28;20063;-69
2023/10/04 01:10:33;;;;;;;7.40;3.08;;;;;;;;;;1045904;28;20520;-69
2023/10/04 01:11:06;;;;;;;6.20;3.45;;;;;;;;;;1045759;28;20120;-69
2023/10/04 01:11:44;;;;;;;4.43;2.88;;;;;;;;;;1044762;28;20057;-68
2023/10/04 01:12:21;;;;;;;4.78;2.85;;;;;;;;;;1044698;28;20033;-69
2023/10/04 01:12:52;;;;;;;7.07;2.40;;;;;;;;;;1046616;28;20583;-69
2023/10/04 01:13:26;;;;;;;4.20;2.53;;;;;;;;;;1045827;28;20645;-69
2023/10/04 01:14:08;;;;;;;4.00;2.50;;;;;;;;;;1045219;28;20049;-69
2023/10/04 01:14:38;;;;;;;4.13;2.33;;;;;;;;;;1041772;28;20045;-69
2023/10/04 01:15:25;;;;;;;3.25;2.30;;;;;;;;;;1039422;28;20053;-69
2023/10/04 01:15:57;;;;;;;6.25;2.35;;;;;;;;;;1042023;28;20045;-69
2023/10/04 01:16:28;;;;;;;3.22;2.00;;;;;;;;;;1041149;28;20534;-69
2023/10/04 01:16:58;;;;;;;5.82;2.47;;;;;;;;;;1042491;28;20494;-69
2023/10/04 01:17:29;;;;;;;5.20;2.92;;;;;;;;;;1044420;28;20048;-69
2023/10/04 01:18:01;;;;;;;5.60;2.40;;;;;;;;;;1045181;28;20097;-70
2023/10/04 01:18:32;;;;;;;4.13;2.08;;;;;;;;;;1046280;28;20045;-69
2023/10/04 01:19:04;;;;;;;7.18;2.10;;;;;;;;;;1046082;28;20057;-69
2023/10/04 01:19:35;;;;;;;5.93;2.45;;;;;;;;;;1045947;28;20127;-69
2023/10/04 01:20:12;;;;;;;4.53;2.22;;;;;;;;;;1044256;28;20044;-69
2023/10/04 01:20:43;;;;;;;3.67;2.67;;;;;;;;;;1045842;28;20040;-69
2023/10/04 01:21:16;;;;;;;7.22;2.42;;;;;;;;;;1044580;28;20056;-69
2023/10/04 01:21:47;;;;;;;3.10;2.10;;;;;;;;;;1046270;28;20055;-69
2023/10/04 01:22:17;;;;;;;3.97;1.92;;;;;;;;;;1046023;28;20059;-69
2023/10/04 01:22:48;;;;;;;4.00;2.40;;;;;;;;;;1044513;28;20060;-69
2023/10/04 01:23:19;;;;;;;3.00;2.03;;;;;;;;;;1044497;28;20056;-69
2023/10/04 01:23:49;;;;;;;5.95;2.30;;;;;;;;;;1046945;28;20048;-69
2023/10/04 01:24:20;;;;;;;6.95;2.35;;;;;;;;;;1045589;28;20045;-69
2023/10/04 01:24:53;;;;;;;4.85;2.22;;;;;;;;;;1045739;28;20045;-69
2023/10/04 01:25:25;;;;;;;4.10;2.15;;;;;;;;;;1043319;28;20059;-70
2023/10/04 01:25:56;;;;;;;3.30;1.92;;;;;;;;;;1045592;28;20036;-69
2023/10/04 01:26:27;;;;;;;3.53;2.20;;;;;;;;;;1044918;28;20056;-69
2023/10/04 01:26:58;;;;;;;4.63;2.22;;;;;;;;;;1044460;28;20048;-69
2023/10/04 01:27:29;;;;;;;3.00;2.30;;;;;;;;;;1046280;28;20048;-69
2023/10/04 01:28:17;;;;;;;5.60;2.30;;;;;;;;;;1045809;28;20402;-69
2023/10/04 01:28:48;;;;;;;3.33;2.20;;;;;;;;;;1045502;28;20092;-69
2023/10/04 01:29:19;;;;;;;2.90;2.03;;;;;;;;;;1045872;28;20053;-69
2023/10/04 01:29:49;;;;;;;5.00;2.13;;;;;;;;;;1046755;28;20048;-69
2023/10/04 01:30:20;;;;;;;3.22;2.30;;;;;;;;;;1044682;28;20120;-69
2023/10/04 01:30:51;;;;;;;3.85;2.15;;;;;;;;;;1044744;28;20055;-69
2023/10/04 01:31:21;;;;;;;4.35;1.80;;;;;;;;;;1043950;28;20056;-69
2023/10/04 01:31:53;;;;;;;3.63;2.35;;;;;;;;;;1044522;28;20045;-69
2023/10/04 01:32:24;;;;;;;5.00;2.33;;;;;;;;;;1046429;28;20451;-69
2023/10/04 01:32:55;;;;;;;6.13;2.20;;;;;;;;;;1045396;28;20504;-69
2023/10/04 01:33:28;;;;;;;3.72;2.05;;;;;;;;;;1045052;28;20071;-69
2023/10/04 01:33:58;;;;;;;2.97;1.88;;;;;;;;;;1046026;28;20064;-69
2023/10/04 01:34:29;;;;;;;4.20;1.95;;;;;;;;;;1046353;28;20181;-69
2023/10/04 01:34:59;;;;;;;3.35;2.13;;;;;;;;;;1045728;28;20134;-69
2023/10/04 01:35:30;;;;;;;2.50;2.00;;;;;;;;;;1045778;28;20044;-69
2023/10/04 01:36:00;;;;;;;4.57;2.28;;;;;;;;;;1044168;28;20149;-69
2023/10/04 01:36:32;;;;;;;3.35;1.95;;;;;;;;;;1045797;28;20078;-69
2023/10/04 01:37:04;;;;;;;4.82;2.15;;;;;;;;;;1045303;28;20249;-69
2023/10/04 01:37:38;;;;;;;4.47;1.98;;;;;;;;;;1046471;28;20070;-69
2023/10/04 01:38:08;;;;;;;3.83;2.03;;;;;;;;;;1045325;28;20139;-69
2023/10/04 01:38:39;;;;;;;6.47;2.22;;;;;;;;;;1045661;28;20055;-69
2023/10/04 01:39:18;;;;;;;4.82;2.33;;;;;;;;;;1046227;28;20123;-69
2023/10/04 01:39:48;;;;;;;4.20;1.90;;;;;;;;;;1046053;28;20391;-69
2023/10/04 01:40:25;;;;;;;4.10;2.10;;;;;;;;;;1045368;28;20056;-69
2023/10/04 01:40:56;;;;;;;3.03;1.92;;;;;;;;;;1044618;28;20059;-69
2023/10/04 01:41:28;;;;;;;4.07;2.22;;;;;;;;;;1045463;28;20051;-69
2023/10/04 01:41:59;;;;;;;3.58;1.92;;;;;;;;;;1046137;28;20046;-69
2023/10/04 01:42:29;;;;;;;3.20;1.90;;;;;;;;;;1046540;28;20591;-70
2023/10/04 01:43:00;;;;;;;3.97;2.17;;;;;;;;;;1046055;28;20121;-69
2023/10/04 01:43:30;;;;;;;3.65;2.13;;;;;;;;;;1045119;28;20114;-69
2023/10/04 01:44:02;;;;;;;3.10;1.90;;;;;;;;;;1046139;28;20055;-69
2023/10/04 01:44:32;;;;;;;3.15;2.22;;;;;;;;;;1046401;28;20057;-69
2023/10/04 01:45:03;;;;;;;4.47;2.10;;;;;;;;;;1044945;28;20049;-68
2023/10/04 01:45:35;;;;;;;4.00;2.33;;;;;;;;;;1045082;28;20048;-68
2023/10/04 01:46:05;;;;;;;4.68;1.98;;;;;;;;;;1041726;28;20053;-68
2023/10/04 01:46:37;;;;;;;3.60;1.70;;;;;;;;;;1044379;28;20424;-69
2023/10/04 01:47:07;;;;;;;2.72;2.17;;;;;;;;;;1044649;28;20048;-68
2023/10/04 01:47:41;;;;;;;3.22;2.10;;;;;;;;;;1046505;28;20049;-68
2023/10/04 01:48:15;;;;;;;5.63;2.05;;;;;;;;;;1046137;28;20086;-68
2023/10/04 01:48:47;;;;;;;6.13;2.25;;;;;;;;;;1047114;28;20691;-69
2023/10/04 01:49:18;;;;;;;5.85;2.28;;;;;;;;;;1044570;28;20603;-69
2023/10/04 01:49:49;;;;;;;3.15;2.00;;;;;;;;;;1046829;28;20862;-69
2023/10/04 01:50:20;;;;;;;2.95;1.98;;;;;;;;;;1045333;28;20048;-68
2023/10/04 01:50:53;;;;;;;3.55;2.20;;;;;;;;;;1046014;28;20037;-69
2023/10/04 01:51:26;;;;;;;4.45;2.08;;;;;;;;;;1045133;28;20056;-69
2023/10/04 01:51:57;;;;;;;5.13;1.92;;;;;;;;;;1045893;28;20103;-69
2023/10/04 01:52:28;;;;;;;2.92;1.83;;;;;;;;;;1044569;28;20045;-68
2023/10/04 01:52:58;;;;;;;6.25;1.90;;;;;;;;;;1044469;28;20056;-68
2023/10/04 01:53:29;;;;;;;7.95;2.03;;;;;;;;;;1046531;28;20037;-69
2023/10/04 01:54:06;;;;;;;3.78;1.80;;;;;;;;;;1045218;28;20048;-69
2023/10/04 01:54:37;;;;;;;2.42;1.65;;;;;;;;;;1045952;28;20052;-68
2023/10/04 01:55:10;;;;;;;3.65;1.92;;;;;;;;;;1045494;28;20052;-68
2023/10/04 01:55:41;;;;;;;4.10;1.92;;;;;;;;;;1045837;28;20626;-69
2023/10/04 01:56:12;;;;;;;4.60;2.05;;;;;;;;;;1043831;28;20544;-69
2023/10/04 01:56:42;;;;;;;5.93;2.40;;;;;;;;;;1044939;28;20377;-69
2023/10/04 01:57:15;;;;;;;4.45;2.03;;;;;;;;;;1045835;28;20140;-69
2023/10/04 01:57:45;;;;;;;3.20;1.48;;;;;;;;;;1045459;28;20048;-68
2023/10/04 01:58:21;;;;;;;3.15;1.95;;;;;;;;;;1046256;28;21626;-69
2023/10/04 01:58:54;;;;;;;3.20;1.83;;;;;;;;;;1045908;28;20087;-68
2023/10/04 01:59:24;;;;;;;4.78;1.90;;;;;;;;;;1046209;28;20044;-69
2023/10/04 01:59:55;;;;;;;7.10;1.50;;;;;;;;;;1045160;28;20164;-68
2023/10/04 02:00:28;;;;;;;4.97;1.83;;;;;;;;;;1044516;28;20076;-68
2023/10/04 02:01:01;;;;;;;5.00;1.80;;;;;;;;;;1044163;28;20051;-68
2023/10/04 02:01:31;;;;;;;2.47;1.70;;;;;;;;;;1045698;28;20130;-69
2023/10/04 02:02:07;;;;;;;2.80;1.42;;;;;;;;;;1043043;28;20053;-69
2023/10/04 02:02:39;;;;;;;3.00;1.60;;;;;;;;;;1045641;28;20052;-69
2023/10/04 02:03:09;;;;;;;2.53;1.60;;;;;;;;;;1043581;28;20067;-69
2023/10/04 02:03:40;;;;;;;6.72;1.80;;;;;;;;;;1046244;28;20044;-69
2023/10/04 02:04:11;;;;;;;5.78;1.60;;;;;;;;;;1044623;28;20135;-69
2023/10/04 02:04:42;;;;;;;2.78;1.60;;;;;;;;;;1045853;28;20439;-69
2023/10/04 02:05:17;;;;;;;4.40;2.08;;;;;;;;;;1045834;28;20500;-69
2023/10/04 02:05:48;;;;;;;3.47;1.58;;;;;;;;;;1046884;28;20532;-68
2023/10/04 02:06:19;;;;;;;2.53;1.38;;;;;;;;;;1044213;28;20474;-69
2023/10/04 02:06:50;;;;;;;5.32;1.70;;;;;;;;;;1047026;28;20750;-69
2023/10/04 02:07:23;;;;;;;3.65;1.52;;;;;;;;;;1045042;28;20079;-69
2023/10/04 02:07:56;;;;;;;4.90;1.48;;;;;;;;;;1045217;28;20475;-69
2023/10/04 02:08:28;;;;;;;2.30;1.50;;;;;;;;;;1044802;28;20194;-68
2023/10/04 02:09:00;;;;;;;4.50;1.45;;;;;;;;;;1045765;28;20053;-69
2023/10/04 02:09:30;;;;;;;3.22;1.60;;;;;;;;;;1045785;28;20044;-69
2023/10/04 02:10:01;;;;;;;4.63;1.80;;;;;;;;;;1046190;28;20072;-69
2023/10/04 02:10:31;;;;;;;6.90;1.77;;;;;;;;;;1044276;28;20173;-69
2023/10/04 02:11:04;;;;;;;2.40;1.45;;;;;;;;;;1046468;28;20048;-68
2023/10/04 02:11:36;;;;;;;2.08;1.52;;;;;;;;;;1044653;28;20078;-69
2023/10/04 02:12:07;;;;;;;6.60;1.20;;;;;;;;;;1045923;28;20037;-69
2023/10/04 02:12:37;;;;;;;1.95;1.42;;;;;;;;;;1045829;28;20177;-69
2023/10/04 02:13:17;;;;;;;4.10;1.33;;;;;;;;;;1046245;28;20045;-69
2023/10/04 02:13:48;;;;;;;3.58;1.73;;;;;;;;;;1044928;28;20414;-68
2023/10/04 02:14:19;;;;;;;2.30;1.30;;;;;;;;;;1046184;28;20454;-69
2023/10/04 02:14:52;;;;;;;5.47;1.60;;;;;;;;;;1045060;28;20044;-71
2023/10/04 02:15:23;;;;;;;2.13;1.20;;;;;;;;;;1045379;28;20059;-69
2023/10/04 02:15:53;;;;;;;8.63;1.35;;;;;;;;;;1046013;28;20048;-69
2023/10/04 02:16:24;;;;;;;4.30;1.20;;;;;;;;;;1044541;28;20044;-69
2023/10/04 02:16:55;;;;;;;1.40;1.10;;;;;;;;;;1046101;28;20058;-70
2023/10/04 02:17:25;;;;;;;4.05;1.52;;;;;;;;;;1045249;28;20056;-69
2023/10/04 02:17:58;;;;;;;2.38;1.30;;;;;;;;;;1045566;28;20049;-69
2023/10/04 02:18:29;;;;;;;1.63;1.30;;;;;;;;;;1044793;28;20095;-69
2023/10/04 02:19:00;;;;;;;2.17;1.40;;;;;;;;;;1046723;28;20048;-69
2023/10/04 02:19:30;;;;;;;2.67;1.33;;;;;;;;;;1046111;28;20052;-69
2023/10/04 02:20:03;;;;;;;2.58;1.52;;;;;;;;;;1046678;28;20055;-69
2023/10/04 02:20:34;;;;;;;4.47;1.23;;;;;;;;;;1044835;28;20398;-69
2023/10/04 02:21:05;;;;;;;1.38;1.20;;;;;;;;;;1046008;28;20119;-69
2023/10/04 02:21:35;;;;;;;6.72;1.35;;;;;;;;;;1045962;28;20056;-69
2023/10/04 02:22:07;;;;;;;4.35;1.38;;;;;;;;;;1045516;28;20060;-69
2023/10/04 02:22:37;;;;;;;2.47;1.40;;;;;;;;;;1044013;28;20049;-69
2023/10/04 02:23:08;;;;;;;3.83;1.58;;;;;;;;;;1045523;28;20048;-69
2023/10/04 02:23:39;;;;;;;4.70;1.48;;;;;;;;;;1047136;28;20059;-68
2023/10/04 02:24:09;;;;;;;4.05;2.15;;;;;;;;;;1044850;28;20579;-68
2023/10/04 02:24:40;;;;;;;2.90;1.23;;;;;;;;;;1044424;28;20052;-69
2023/10/04 02:25:13;;;;;;;1.92;0.95;;;;;;;;;;1043119;28;20106;-69
2023/10/04 02:25:44;;;;;;;2.00;1.23;;;;;;;;;;1045762;28;20048;-69
2023/10/04 02:26:15;;;;;;;3.00;1.27;;;;;;;;;;1043100;28;20600;-69
2023/10/04 02:26:45;;;;;;;3.60;1.40;;;;;;;;;;1046723;28;20523;-69
2023/10/04 02:27:17;;;;;;;2.95;1.20;;;;;;;;;;1045143;28;20047;-68
2023/10/04 02:27:49;;;;;;;2.17;1.40;;;;;;;;;;1045439;28;20041;-69
2023/10/04 02:28:22;;;;;;;2.90;1.30;;;;;;;;;;1043548;28;20060;-68
2023/10/04 02:28:53;;;;;;;4.50;1.40;;;;;;;;;;1045623;28;20060;-69
2023/10/04 02:29:25;;;;;;;3.25;1.08;;;;;;;;;;1045995;28;20045;-68
2023/10/04 02:29:55;;;;;;;1.83;1.10;;;;;;;;;;1046054;28;21097;-69
2023/10/04 02:30:26;;;;;;;2.53;1.48;;;;;;;;;;1042111;28;21335;-68
2023/10/04 02:30:57;;;;;;;4.22;1.20;;;;;;;;;;1043323;28;20041;-69
2023/10/04 02:31:29;;;;;;;2.92;1.48;;;;;;;;;;1043937;28;20389;-68
2023/10/04 02:32:08;;;;;;;3.60;1.33;;;;;;;;;;1045139;28;20053;-69
2023/10/04 02:32:40;;;;;;;5.22;1.33;;;;;;;;;;1043977;28;20102;-68
2023/10/04 02:33:14;;;;;;;1.95;1.30;;;;;;;;;;1045293;28;20048;-69
2023/10/04 02:33:44;;;;;;;3.05;1.50;;;;;;;;;;1044187;28;20045;-69
2023/10/04 02:34:19;;;;;;;2.25;1.15;;;;;;;;;;1043820;28;20126;-68
2023/10/04 02:34:50;;;;;;;2.50;1.33;;;;;;;;;;1049882;28;20040;-69
2023/10/04 02:35:25;;;;;;;4.80;1.50;;;;;;;;;;1044954;28;20048;-69
2023/10/04 02:35:56;;;;;;;3.53;1.30;;;;;;;;;;1046365;28;20036;-69
2023/10/04 02:36:26;;;;;;;4.05;1.25;;;;;;;;;;1039269;28;20053;-68
2023/10/04 02:36:57;;;;;;;3.70;1.67;;;;;;;;;;1041557;28;20395;-69
2023/10/04 02:37:27;;;;;;;2.95;1.33;;;;;;;;;;1040599;28;20055;-68
2023/10/04 02:38:09;;;;;;;2.75;1.40;;;;;;;;;;1040665;28;20071;-69
2023/10/04 02:38:40;;;;;;;3.00;1.23;;;;;;;;;;1042777;28;20699;-69
2023/10/04 02:39:11;;;;;;;2.55;1.30;;;;;;;;;;1041099;28;20485;-68
2023/10/04 02:39:44;;;;;;;3.55;1.40;;;;;;;;;;1041243;28;20042;-69
2023/10/04 02:40:16;;;;;;;3.20;1.23;;;;;;;;;;1039819;28;20056;-69
2023/10/04 02:40:48;;;;;;;4.28;2.15;;;;;;;;;;1040887;28;20070;-69
2023/10/04 02:41:20;;;;;;;2.08;1.38;;;;;;;;;;1039592;28;20095;-69
2023/10/04 02:41:50;;;;;;;2.67;1.05;;;;;;;;;;1042423;28;20041;-69
2023/10/04 02:42:21;;;;;;;5.03;1.63;;;;;;;;;;1040884;28;20048;-69
2023/10/04 02:42:56;;;;;;;1.75;1.15;;;;;;;;;;1042416;28;20045;-69
2023/10/04 02:43:27;;;;;;;3.63;1.38;;;;;;;;;;1045182;28;20058;-69
2023/10/04 02:44:02;;;;;;;1.95;1.67;;;;;;;;;;1046407;28;20048;-69
2023/10/04 02:44:33;;;;;;;2.92;1.35;;;;;;;;;;1045460;28;20593;-69
2023/10/04 02:45:07;;;;;;;1.85;1.30;;;;;;;;;;1043583;28;20520;-68
2023/10/04 02:45:37;;;;;;;1.67;1.58;;;;;;;;;;1044508;28;20049;-69
2023/10/04 02:46:10;;;;;;;2.38;1.35;;;;;;;;;;1044620;28;20074;-69
2023/10/04 02:46:44;;;;;;;2.03;1.42;;;;;;;;;;1045823;28;20053;-69
2023/10/04 02:47:14;;;;;;;1.42;1.30;;;;;;;;;;1044237;28;20686;-68
2023/10/04 02:47:48;;;;;;;3.55;1.92;;;;;;;;;;1044952;28;21133;-69
2023/10/04 02:48:19;;;;;;;3.67;1.42;;;;;;;;;;1043973;28;20045;-68
2023/10/04 02:48:50;;;;;;;5.35;1.55;;;;;;;;;;1044934;28;20060;-69
2023/10/04 02:49:21;;;;;;;5.50;1.80;;;;;;;;;;1046210;28;20063;-69
2023/10/04 02:49:51;;;;;;;3.63;1.70;;;;;;;;;;1046086;28;20090;-69
2023/10/04 02:50:25;;;;;;;3.78;1.38;;;;;;;;;;1044471;28;20084;-69
2023/10/04 02:50:56;;;;;;;7.35;1.42;;;;;;;;;;1045141;28;20044;-68
2023/10/04 02:51:27;;;;;;;3.00;1.45;;;;;;;;;;1046311;28;20064;-69
2023/10/04 02:51:58;;;;;;;5.70;1.40;;;;;;;;;;1045732;28;20041;-69
2023/10/04 02:52:28;;;;;;;2.90;1.42;;;;;;;;;;1044718;28;20056;-69
2023/10/04 02:52:59;;;;;;;2.33;1.48;;;;;;;;;;1044823;28;20040;-69
2023/10/04 02:53:30;;;;;;;2.83;1.50;;;;;;;;;;1044873;28;20044;-69
2023/10/04 02:54:02;;;;;;;1.90;1.40;;;;;;;;;;1044715;28;20048;-69
2023/10/04 02:54:33;;;;;;;5.72;1.77;;;;;;;;;;1046996;28;20079;-69
2023/10/04 02:55:04;;;;;;;6.20;1.60;;;;;;;;;;1046001;28;20416;-68
2023/10/04 02:55:36;;;;;;;2.88;1.40;;;;;;;;;;1045645;28;20685;-69
2023/10/04 02:56:07;;;;;;;6.50;1.60;;;;;;;;;;1044984;28;20614;-69
2023/10/04 02:56:45;;;;;;;3.70;1.40;;;;;;;;;;1044965;28;20056;-69
2023/10/04 02:57:16;;;;;;;3.58;1.73;;;;;;;;;;1045003;28;20059;-69
2023/10/04 02:57:49;;;;;;;4.70;1.42;;;;;;;;;;1046826;28;20053;-69
2023/10/04 02:58:23;;;;;;;5.55;2.03;;;;;;;;;;1044774;28;20433;-69
2023/10/04 02:58:54;;;;;;;3.47;1.95;;;;;;;;;;1046345;28;20082;-69
2023/10/04 02:59:25;;;;;;;3.85;1.52;;;;;;;;;;1043903;28;20052;-68
2023/10/04 02:59:55;;;;;;;2.28;1.58;;;;;;;;;;1045195;28;20050;-69
2023/10/04 03:00:26;;;;;;;2.15;1.60;;;;;;;;;;1045090;28;20052;-68
2023/10/04 03:00:57;;;;;;;2.05;1.48;;;;;;;;;;1045764;28;20071;-68
2023/10/04 03:01:27;;;;;;;7.07;1.63;;;;;;;;;;1045602;28;20048;-68
2023/10/04 03:01:58;;;;;;;3.72;1.75;;;;;;;;;;1045393;28;20481;-69
2023/10/04 03:02:29;;;;;;;3.28;1.83;;;;;;;;;;1045298;28;20066;-68
2023/10/04 03:03:00;;;;;;;5.80;1.70;;;;;;;;;;1045460;28;20052;-69
2023/10/04 03:03:31;;;;;;;6.05;1.50;;;;;;;;;;1044965;28;20049;-68
2023/10/04 03:04:08;;;;;;;1.98;1.30;;;;;;;;;;1045746;28;20048;-68
2023/10/04 03:04:43;;;;;;;4.03;1.55;;;;;;;;;;1044951;28;20051;-68
2023/10/04 03:05:19;;;;;;;6.57;1.50;;;;;;;;;;1044962;28;20056;-68
2023/10/04 03:05:54;;;;;;;2.00;1.27;;;;;;;;;;1044785;28;20049;-69
2023/10/04 03:06:26;;;;;;;4.72;1.52;;;;;;;;;;1045608;28;20066;-69
2023/10/04 03:06:56;;;;;;;4.65;1.88;;;;;;;;;;1044549;28;20044;-69
2023/10/04 03:07:27;;;;;;;6.00;2.13;;;;;;;;;;1041108;28;20049;-69
2023/10/04 03:08:06;;;;;;;5.90;1.60;;;;;;;;;;1042760;28;20053;-69
2023/10/04 03:08:37;;;;;;;3.35;1.48;;;;;;;;;;1042318;28;20053;-68
2023/10/04 03:09:08;;;;;;;4.60;1.50;;;;;;;;;;1040616;28;20040;-69
2023/10/04 03:09:41;;;;;;;3.25;1.60;;;;;;;;;;1042111;28;20044;-69
2023/10/04 03:10:12;;;;;;;5.97;1.70;;;;;;;;;;1040795;28;20055;-69
2023/10/04 03:10:45;;;;;;;3.67;1.58;;;;;;;;;;1041860;28;20759;-69
2023/10/04 03:11:15;;;;;;;5.35;2.00;;;;;;;;;;1040897;28;20045;-68
2023/10/04 03:11:46;;;;;;;3.90;1.67;;;;;;;;;;1041491;28;20048;-69